AST weather

Aerofumigaciones Nayarit Airstrip
Mexicali, Baja California, Mexico

Public forecast

Using degrees Celsius for public forecast. Weather courtesy of forecast.io.

Closest aviation weather report (METAR) to Aerofumigaciones Nayarit Airstrip

Closest report is General Rodolfo Sánchez Taboada International Airport, 19.1 nm (35.3 km) N. Retrieved 2020/02/18 06:42 UTC (0 seconds ago):

MMML 180642Z 00000KT 10SM SKC 15/05 A2991

Closest aviation forecast (TAF) to Aerofumigaciones Nayarit Airstrip

Closest forecast is General Rodolfo Sánchez Taboada International Airport, 19.1 nm (35.3 km) N. Retrieved 2020/02/18 06:38 UTC (0 seconds ago):

TAF MMML 180431Z 1806/1906 22004KT P6SM SKC FM181800 02015KT P6SM SKC BECMG 1903/1905 02006KT